Time;durP1;ratioP1;P1;durP2;ratioP2;P2;SDS_P1;SDS_P2;PMS_P1;PMS_P2;Temp;Humidity;BMP_temperature;BMP_pressure;BME280_temperature;BME280_humidity;BME280_pressure;Samples;Min_cycle;Max_cycle;Signal;HPM_P1;HPM_P2
2022/01/24 00:01:07;;;;;;;14.77;7.22;;;;;;;4.34;100.00;103020.53;5072821;28;20084;-81
2022/01/24 00:03:34;;;;;;;14.93;5.78;;;;;;;4.27;100.00;103005.84;5072271;28;20044;-80
2022/01/24 00:05:59;;;;;;;15.77;7.40;;;;;;;4.34;100.00;103016.09;5055099;28;20032;-80
2022/01/24 00:08:25;;;;;;;11.23;6.28;;;;;;;4.31;100.00;103015.34;5054127;28;20409;-80
2022/01/24 00:10:52;;;;;;;13.63;6.85;;;;;;;4.30;100.00;103003.91;5071688;28;20445;-80
2022/01/24 00:18:27;;;;;;;22.63;6.88;;;;;;;4.44;100.00;103019.19;5072577;28;20044;-79
2022/01/24 00:29:05;;;;;;;9.77;5.93;;;;;;;4.35;100.00;103016.94;5071816;28;20032;-80
2022/01/24 00:31:30;;;;;;;15.23;7.90;;;;;;;4.22;100.00;102998.97;5054673;28;20367;-79
2022/01/24 00:33:55;;;;;;;18.17;8.17;;;;;;;4.23;100.00;103008.59;5071228;28;20036;-80
2022/01/24 00:36:21;;;;;;;15.93;10.10;;;;;;;4.21;100.00;103002.56;5054447;28;20073;-80
2022/01/24 00:38:46;;;;;;;22.00;9.60;;;;;;;4.28;100.00;103015.50;5055158;28;20477;-80
2022/01/24 00:41:15;;;;;;;20.70;10.37;;;;;;;4.19;100.00;103022.91;5054988;28;20035;-80
2022/01/24 00:44:01;;;;;;;21.30;11.13;;;;;;;4.27;100.00;103027.00;5070819;28;20033;-80
2022/01/24 00:46:34;;;;;;;19.63;11.27;;;;;;;4.27;100.00;103022.56;5071208;28;20028;-80
2022/01/24 00:49:48;;;;;;;23.25;11.30;;;;;;;4.28;100.00;103018.13;5071434;28;20048;-80
2022/01/24 00:54:47;;;;;;;30.30;14.43;;;;;;;4.30;100.00;103029.50;5071118;28;20937;-80
2022/01/24 00:57:13;;;;;;;29.63;14.00;;;;;;;4.26;100.00;103036.72;5054716;28;20067;-78
2022/01/24 00:59:39;;;;;;;27.48;13.07;;;;;;;4.23;100.00;103026.25;5071364;28;20477;-79
2022/01/24 01:02:05;;;;;;;31.20;15.73;;;;;;;4.15;100.00;103013.38;5071206;28;20047;-80
2022/01/24 01:07:11;;;;;;;27.42;13.57;;;;;;;4.19;100.00;103016.72;5073047;28;19912;-79
2022/01/24 01:18:14;;;;;;;28.42;14.63;;;;;;;4.17;100.00;103024.75;5073200;28;20040;-80
2022/01/24 01:23:24;;;;;;;36.45;16.83;;;;;;;4.14;100.00;103037.22;5071786;28;20051;-80
2022/01/24 01:25:51;;;;;;;33.92;16.38;;;;;;;4.11;100.00;103038.22;5054840;28;20299;-80
2022/01/24 01:28:18;;;;;;;30.30;16.58;;;;;;;4.23;100.00;103048.28;5055279;28;20105;-80
2022/01/24 01:30:47;;;;;;;34.92;16.30;;;;;;;4.23;100.00;103042.97;5055089;28;20040;-80
2022/01/24 01:57:16;;;;;;;36.28;15.90;;;;;;;4.16;100.00;103041.53;5073515;28;20358;-78
2022/01/24 01:59:42;;;;;;;37.47;16.70;;;;;;;4.13;100.00;103039.03;5072175;28;20182;-79
2022/01/24 02:02:07;;;;;;;35.85;15.57;;;;;;;4.12;100.00;103034.66;5071648;28;20024;-80
2022/01/24 02:04:33;;;;;;;38.47;17.37;;;;;;;4.12;100.00;103042.59;5072237;28;20094;-80
2022/01/24 02:06:58;;;;;;;32.83;15.53;;;;;;;4.20;100.00;103066.91;5073030;28;20289;-79
2022/01/24 02:09:32;;;;;;;34.03;16.40;;;;;;;4.22;100.00;103061.56;5055937;28;20296;-80
2022/01/24 02:11:57;;;;;;;31.42;17.02;;;;;;;4.04;100.00;103039.41;5072929;28;20585;-79
2022/01/24 02:14:30;;;;;;;38.57;17.37;;;;;;;4.17;100.00;103066.19;5072282;28;20024;-80
2022/01/24 02:17:02;;;;;;;30.20;15.55;;;;;;;4.17;100.00;103079.44;5056731;28;20329;-80
2022/01/24 02:24:32;;;;;;;31.33;15.38;;;;;;;4.03;100.00;103069.41;5072973;28;20021;-81
2022/01/24 02:26:59;;;;;;;30.67;15.93;;;;;;;3.97;100.00;103056.44;5073780;28;20090;-80
2022/01/24 02:31:55;;;;;;;37.58;16.50;;;;;;;4.05;100.00;103064.94;5074525;28;20037;-81
2022/01/24 02:34:33;;;;;;;31.88;16.10;;;;;;;4.13;100.00;103069.91;5076118;28;20036;-80
2022/01/24 02:37:05;;;;;;;32.42;15.90;;;;;;;4.07;100.00;103068.34;5077049;28;20036;-80
2022/01/24 02:50:24;;;;;;;39.28;16.23;;;;;;;3.95;100.00;103063.56;5079422;28;20032;-79
2022/01/24 02:52:50;;;;;;;45.55;16.58;;;;;;;3.96;100.00;103060.88;5062767;28;20032;-80
2022/01/24 02:55:15;;;;;;;40.00;16.63;;;;;;;3.93;100.00;103054.84;5055515;28;20027;-80
2022/01/24 02:57:40;;;;;;;35.40;15.57;;;;;;;4.02;100.00;103068.53;5058479;28;20092;-79
2022/01/24 03:00:06;;;;;;;42.00;16.87;;;;;;;3.97;100.00;103061.72;5038318;28;20119;-79
2022/01/24 03:02:32;;;;;;;41.00;18.38;;;;;;;3.99;100.00;103071.31;5051235;28;20124;-80
2022/01/24 03:04:57;;;;;;;37.00;17.53;;;;;;;3.92;100.00;103058.41;5051831;28;20137;-79
2022/01/24 03:07:23;;;;;;;56.05;21.48;;;;;;;3.92;100.00;103058.41;5052296;28;20063;-79
2022/01/24 03:09:49;;;;;;;40.50;18.58;;;;;;;3.97;100.00;103064.38;5052316;28;20029;-79
2022/01/24 03:12:26;;;;;;;36.65;18.83;;;;;;;3.85;100.00;103049.03;5051872;28;20047;-79
2022/01/24 03:14:51;;;;;;;36.20;17.55;;;;;;;3.90;100.00;103055.81;5052277;28;20075;-79
2022/01/24 03:17:17;;;;;;;37.17;17.53;;;;;;;4.00;100.00;103069.53;5052527;28;20091;-79
2022/01/24 03:19:42;;;;;;;40.70;18.30;;;;;;;3.93;100.00;103060.13;5051684;28;20033;-79
2022/01/24 03:22:11;;;;;;;40.03;17.70;;;;;;;3.86;100.00;103054.22;5051944;28;20398;-80
2022/01/24 03:24:36;;;;;;;44.40;18.10;;;;;;;3.89;100.00;103059.41;5051273;28;20311;-79
2022/01/24 03:27:02;;;;;;;40.10;16.73;;;;;;;3.93;100.00;103060.13;5051993;28;20023;-79
2022/01/24 03:29:27;;;;;;;39.08;17.05;;;;;;;3.95;100.00;103060.94;5052083;28;20406;-78
2022/01/24 03:31:52;;;;;;;34.43;17.23;;;;;;;3.91;100.00;103069.91;5052266;28;20037;-79
2022/01/24 03:34:18;;;;;;;39.70;17.47;;;;;;;3.81;100.00;103045.63;5050803;28;20131;-78
2022/01/24 03:36:43;;;;;;;37.50;18.13;;;;;;;3.89;100.00;103061.19;5051175;28;20022;-79
2022/01/24 03:39:10;;;;;;;34.92;17.92;;;;;;;3.92;100.00;103064.56;5051781;28;20029;-78
2022/01/24 03:41:39;;;;;;;37.22;16.40;;;;;;;3.90;100.00;103060.25;5035738;28;20033;-79
2022/01/24 03:44:05;;;;;;;34.83;17.33;;;;;;;3.90;100.00;103065.53;5050626;28;20041;-79
2022/01/24 03:46:47;;;;;;;36.63;17.75;;;;;;;3.90;100.00;103066.41;5058323;23;20078;-77
2022/01/24 03:49:45;;;;;;;35.42;18.40;;;;;;;3.92;100.00;103069.00;5011671;28;20451;-77
2022/01/24 03:51:58;;;;;;;37.88;16.80;;;;;;;3.89;100.00;103063.84;5029175;28;20037;-77
2022/01/24 03:54:23;;;;;;;39.80;17.60;;;;;;;3.90;100.00;103057.63;5011430;28;20080;-77
2022/01/24 03:56:49;;;;;;;37.70;16.47;;;;;;;3.90;100.00;103054.97;5011809;28;20124;-77
2022/01/24 03:59:14;;;;;;;38.90;18.70;;;;;;;3.83;100.00;103054.34;5011434;28;20244;-76
2022/01/24 04:01:39;;;;;;;36.37;16.63;;;;;;;3.87;100.00;103055.09;5010931;28;20029;-77
2022/01/24 04:04:05;;;;;;;41.07;17.23;;;;;;;3.93;100.00;103057.47;5027983;28;20067;-76
2022/01/24 04:06:30;;;;;;;36.77;18.57;;;;;;;3.91;100.00;103056.69;5011480;28;20108;-77
2022/01/24 04:08:55;;;;;;;34.80;17.40;;;;;;;3.92;100.00;103051.34;5028035;28;20493;-77
2022/01/24 04:11:21;;;;;;;34.03;16.57;;;;;;;3.94;100.00;103048.66;5011936;28;20429;-77
2022/01/24 04:13:56;;;;;;;35.60;17.33;;;;;;;3.91;100.00;103048.75;5010961;28;20502;-76
2022/01/24 04:16:31;;;;;;;32.33;14.83;;;;;;;3.90;100.00;103052.34;5027834;28;20189;-77
2022/01/24 04:19:33;;;;;;;34.28;16.23;;;;;;;3.93;100.00;103055.72;5028886;28;20037;-76
2022/01/24 04:21:49;;;;;;;32.03;16.90;;;;;;;3.91;100.00;103048.75;5028618;28;20037;-75
2022/01/24 04:24:19;;;;;;;29.80;15.05;;;;;;;3.87;100.00;103052.47;5010867;28;20030;-77
2022/01/24 04:26:45;;;;;;;32.40;15.30;;;;;;;3.91;100.00;103052.28;5027322;28;20487;-77
2022/01/24 04:29:11;;;;;;;31.75;14.55;;;;;;;3.97;100.00;103048.50;5027486;28;20027;-77
2022/01/24 04:31:36;;;;;;;28.43;13.53;;;;;;;3.92;100.00;103053.97;5028565;28;20119;-77
2022/01/24 04:34:03;;;;;;;30.87;16.13;;;;;;;3.94;100.00;103056.56;5027132;28;20112;-77
2022/01/24 04:36:28;;;;;;;28.25;13.73;;;;;;;3.98;100.00;103064.31;5029117;28;20387;-76
2022/01/24 04:38:55;;;;;;;26.02;13.18;;;;;;;3.93;100.00;103060.13;5044550;28;20147;-78
2022/01/24 04:41:24;;;;;;;35.53;15.90;;;;;;;3.93;100.00;103047.78;5048418;28;20132;-77
2022/01/24 04:44:19;;;;;;;24.88;13.85;;;;;;;3.96;100.00;103055.59;5048452;28;20033;-77
2022/01/24 04:54:42;;;;;;;27.52;13.60;;;;;;;3.91;100.00;103041.72;5048621;28;20093;-77
2022/01/24 04:57:14;;;;;;;32.53;13.98;;;;;;;3.95;100.00;103039.78;5047974;28;20068;-78
2022/01/24 04:59:41;;;;;;;26.08;12.35;;;;;;;3.94;100.00;103035.44;5031371;28;20035;-77
2022/01/24 05:02:06;;;;;;;31.77;15.15;;;;;;;3.92;100.00;103032.00;5031321;28;20413;-77
2022/01/24 05:04:33;;;;;;;26.27;13.32;;;;;;;3.94;100.00;103033.63;5062761;28;20044;-77
2022/01/24 05:06:58;;;;;;;26.00;12.93;;;;;;;3.78;100.00;103025.47;5030225;28;20033;-76
2022/01/24 05:09:25;;;;;;;31.67;13.50;;;;;;;3.83;100.00;103035.84;5048927;28;20040;-77
2022/01/24 05:12:06;;;;;;;26.02;12.95;;;;;;;3.95;100.00;103042.44;5046752;28;20056;-78
2022/01/24 05:25:27;;;;;;;23.88;11.85;;;;;;;3.86;100.00;103032.22;5047416;28;20098;-78
2022/01/24 05:27:53;;;;;;;24.77;13.00;;;;;;;3.87;100.00;103032.19;5030756;28;20028;-77
2022/01/24 05:30:18;;;;;;;26.50;12.43;;;;;;;3.86;100.00;103034.88;5030952;28;20028;-77
2022/01/24 05:32:44;;;;;;;25.50;13.23;;;;;;;3.86;100.00;103037.50;5030718;28;20703;-77
2022/01/24 05:35:10;;;;;;;29.65;12.82;;;;;;;3.92;100.00;103043.41;5046102;28;20437;-77
2022/01/24 05:37:36;;;;;;;29.90;13.13;;;;;;;3.84;100.00;103031.44;5030770;28;20032;-78
2022/01/24 05:40:03;;;;;;;24.17;13.25;;;;;;;3.93;100.00;103041.63;5046760;28;20041;-77
2022/01/24 05:42:28;;;;;;;28.40;13.48;;;;;;;3.82;100.00;103034.16;5046656;28;20056;-77
2022/01/24 05:44:54;;;;;;;28.17;13.60;;;;;;;3.83;100.00;103035.84;5046977;28;20071;-77
2022/01/24 05:47:19;;;;;;;28.37;14.60;;;;;;;3.81;100.00;103045.63;5046375;28;20760;-77
2022/01/24 05:49:45;;;;;;;30.87;14.63;;;;;;;3.79;100.00;103032.50;5047610;28;20038;-77
2022/01/24 05:52:11;;;;;;;29.05;13.65;;;;;;;3.83;100.00;103042.94;5047557;28;20478;-77
2022/01/24 05:54:38;;;;;;;25.83;13.60;;;;;;;3.81;100.00;103041.19;5046174;28;20041;-77
2022/01/24 05:57:04;;;;;;;25.95;13.85;;;;;;;3.75;100.00;103038.81;5045084;28;20113;-77
2022/01/24 05:59:30;;;;;;;24.25;13.10;;;;;;;3.84;100.00;103045.53;5047459;28;20029;-78
2022/01/24 06:01:55;;;;;;;29.90;13.40;;;;;;;3.81;100.00;103038.56;5047079;28;20020;-77
2022/01/24 06:04:21;;;;;;;31.03;13.17;;;;;;;3.81;100.00;103038.56;5031151;28;20056;-77
2022/01/24 06:06:46;;;;;;;28.77;15.30;;;;;;;3.84;100.00;103047.28;5045377;28;20733;-77
2022/01/24 06:09:11;;;;;;;28.80;13.17;;;;;;;3.79;100.00;103037.78;5028753;28;20127;-77
2022/01/24 06:11:37;;;;;;;26.90;12.90;;;;;;;3.77;100.00;103036.97;5029569;28;20033;-77
2022/01/24 06:14:03;;;;;;;32.47;14.27;;;;;;;3.81;100.00;103040.34;5046246;28;20073;-77
2022/01/24 06:16:29;;;;;;;32.75;14.68;;;;;;;3.85;100.00;103041.09;5047517;28;20053;-77
2022/01/24 06:18:54;;;;;;;27.48;13.32;;;;;;;3.82;100.00;103036.78;5045666;28;20079;-77
2022/01/24 06:21:20;;;;;;;27.73;12.23;;;;;;;3.87;100.00;103034.81;5029517;28;20059;-77
2022/01/24 06:23:45;;;;;;;26.50;12.47;;;;;;;3.81;100.00;103038.56;5045899;28;20060;-77
2022/01/24 06:26:11;;;;;;;26.33;12.70;;;;;;;3.84;100.00;103040.25;5046042;28;20330;-77
2022/01/24 06:28:37;;;;;;;28.05;13.02;;;;;;;3.77;100.00;103030.84;5029532;28;20044;-77
2022/01/24 06:31:03;;;;;;;;;;;;;;;3.77;100.00;103036.13;5045666;28;20043;-77
2022/01/24 06:33:28;;;;;;;25.77;13.25;;;;;;;3.74;100.00;103037.09;5029288;28;19913;-75
2022/01/24 06:35:54;;;;;;;22.92;12.40;;;;;;;3.72;100.00;103030.16;5045674;28;20064;-77
2022/01/24 06:38:19;;;;;;;28.50;14.27;;;;;;;3.74;100.00;103029.16;5045989;28;20660;-77
2022/01/24 06:40:45;;;;;;;28.07;13.10;;;;;;;3.72;100.00;103038.97;5046018;28;20037;-77
2022/01/24 06:43:10;;;;;;;28.40;13.07;;;;;;;3.75;100.00;103030.91;5046340;28;20399;-77
2022/01/24 06:45:35;;;;;;;30.93;13.00;;;;;;;3.66;100.00;103023.34;5028807;28;20040;-77
2022/01/24 06:48:01;;;;;;;26.93;12.87;;;;;;;3.69;100.00;103025.84;5029471;28;20037;-76
2022/01/24 06:50:26;;;;;;;27.97;13.10;;;;;;;3.78;100.00;103038.69;5046269;28;20029;-77
2022/01/24 06:52:52;;;;;;;27.33;12.85;;;;;;;3.71;100.00;103039.88;5046228;28;20850;-77
2022/01/24 06:55:17;;;;;;;22.25;11.77;;;;;;;3.75;100.00;103033.53;5045502;28;20103;-78
2022/01/24 06:57:43;;;;;;;23.52;11.25;;;;;;;3.74;100.00;103034.44;5029625;28;20055;-76
2022/01/24 07:00:09;;;;;;;22.48;12.93;;;;;;;3.76;100.00;103044.97;5046097;28;20513;-76
2022/01/24 07:02:34;;;;;;;23.85;13.18;;;;;;;3.74;100.00;103033.59;5045934;28;20479;-78
2022/01/24 07:05:00;;;;;;;25.33;13.17;;;;;;;3.77;100.00;103031.69;5029049;28;20051;-77
2022/01/24 07:07:25;;;;;;;29.53;12.83;;;;;;;3.79;100.00;103029.84;5029668;28;20029;-77
2022/01/24 07:09:50;;;;;;;25.77;12.17;;;;;;;3.79;100.00;103029.84;5045963;28;20649;-77
2022/01/24 07:12:16;;;;;;;25.13;12.83;;;;;;;3.91;100.00;103040.81;5029546;28;20037;-77
2022/01/24 07:14:42;;;;;;;24.10;11.47;;;;;;;3.80;100.00;103028.91;5045327;28;20275;-77
2022/01/24 07:17:17;;;;;;;;;;;;;;;3.77;100.00;103026.41;5030238;28;20289;-76
2022/01/24 07:19:43;;;;;;;21.92;10.60;;;;;;;3.80;100.00;103025.44;5032877;28;19916;-76
2022/01/24 07:22:08;;;;;;;23.10;11.70;;;;;;;3.76;100.00;103024.69;5034380;28;20036;-77
2022/01/24 07:24:35;;;;;;;22.60;11.38;;;;;;;3.74;100.00;103029.16;5050122;28;20357;-77
2022/01/24 07:27:02;;;;;;;21.38;11.80;;;;;;;3.70;100.00;103017.03;5050971;28;20055;-77
2022/01/24 07:29:27;;;;;;;19.63;11.07;;;;;;;3.77;100.00;103020.28;5050737;28;20033;-76
2022/01/24 07:31:53;;;;;;;23.98;12.18;;;;;;;3.72;100.00;103006.38;5050861;28;20085;-78
2022/01/24 07:34:18;;;;;;;23.98;12.15;;;;;;;3.72;100.00;103020.47;5034158;28;20127;-77
2022/01/24 07:36:44;;;;;;;20.53;10.97;;;;;;;3.73;100.00;103014.25;5049622;28;20033;-77
2022/01/24 07:39:09;;;;;;;23.57;11.87;;;;;;;3.72;100.00;103009.00;5050140;28;20033;-77
2022/01/24 07:41:42;;;;;;;26.38;10.88;;;;;;;3.68;100.00;103008.28;5049804;28;20309;-76
2022/01/24 07:44:16;;;;;;;23.27;11.65;;;;;;;3.66;100.00;103011.91;5048815;28;20131;-77
2022/01/24 07:46:42;;;;;;;19.45;10.80;;;;;;;3.73;100.00;103019.53;5048758;28;20543;-77
2022/01/24 07:49:10;;;;;;;27.52;12.32;;;;;;;3.69;100.00;103014.44;5049487;28;20025;-77
2022/01/24 07:51:36;;;;;;;27.48;12.48;;;;;;;3.67;100.00;103008.34;5032889;28;20497;-76
2022/01/24 07:54:02;;;;;;;24.88;13.43;;;;;;;3.66;100.00;103007.50;5032445;28;20032;-77
2022/01/24 07:56:28;;;;;;;27.17;12.10;;;;;;;3.63;100.00;103010.28;5048755;28;20123;-77
2022/01/24 07:58:53;;;;;;;20.27;11.38;;;;;;;3.71;100.00;102991.44;5032595;28;20127;-77
2022/01/24 08:01:19;;;;;;;21.15;11.48;;;;;;;3.79;100.00;103015.75;5049712;28;20052;-78
2022/01/24 08:03:46;;;;;;;23.33;12.35;;;;;;;3.78;100.00;103003.50;5033225;28;20025;-76
2022/01/24 08:06:12;;;;;;;26.55;11.77;;;;;;;3.72;100.00;103001.09;5049527;28;20461;-78
2022/01/24 08:08:37;;;;;;;23.80;12.77;;;;;;;3.73;100.00;103001.03;5049696;28;20087;-75
2022/01/24 08:11:02;;;;;;;22.23;11.07;;;;;;;3.72;100.00;102999.31;5047699;28;20064;-74
2022/01/24 08:13:28;;;;;;;22.17;11.70;;;;;;;3.79;100.00;103005.19;5047753;28;20033;-77
2022/01/24 08:15:53;;;;;;;21.47;11.87;;;;;;;3.77;100.00;102997.34;5047377;28;20072;-77
2022/01/24 08:18:18;;;;;;;20.57;11.60;;;;;;;3.73;100.00;102994.91;5032475;28;20412;-78
2022/01/24 08:20:44;;;;;;;27.97;12.43;;;;;;;3.66;100.00;103002.19;5049735;28;20037;-78
2022/01/24 08:23:10;;;;;;;22.27;11.67;;;;;;;3.72;100.00;103007.25;5049390;28;20048;-77
2022/01/24 08:25:36;;;;;;;21.60;11.25;;;;;;;3.69;100.00;103004.72;5049273;28;20492;-78
2022/01/24 08:28:01;;;;;;;20.65;11.10;;;;;;;3.69;100.00;103009.16;5049095;28;20171;-79
2022/01/24 08:30:27;;;;;;;21.93;11.40;;;;;;;3.73;100.00;103003.66;5048569;28;20043;-79
2022/01/24 08:32:52;;;;;;;23.80;12.00;;;;;;;3.77;100.00;103005.28;5049564;28;20037;-78
2022/01/24 08:35:20;;;;;;;25.23;11.40;;;;;;;3.78;100.00;103006.97;5032923;28;20041;-78
2022/01/24 08:37:46;;;;;;;21.38;11.57;;;;;;;3.69;100.00;102999.44;5049514;28;20044;-79
2022/01/24 08:40:20;;;;;;;23.17;13.18;;;;;;;3.73;100.00;103005.47;5049671;28;20017;-79
2022/01/24 08:42:55;;;;;;;23.88;12.20;;;;;;;3.72;100.00;102999.31;5049288;28;20052;-76
2022/01/24 08:48:05;;;;;;;29.65;12.98;;;;;;;3.78;100.00;102996.41;5049268;28;20056;-77
2022/01/24 08:50:30;;;;;;;24.65;13.88;;;;;;;3.77;100.00;102981.50;5047575;28;20037;-76
2022/01/24 08:52:59;;;;;;;26.43;13.10;;;;;;;3.79;100.00;102982.28;5047170;28;20510;-77
2022/01/24 08:55:30;;;;;;;28.15;13.90;;;;;;;3.75;100.00;102982.47;5046823;28;20113;-76
2022/01/24 08:57:56;;;;;;;28.85;14.10;;;;;;;3.79;100.00;102984.94;5032572;28;20033;-79
2022/01/24 09:00:22;;;;;;;26.95;12.73;;;;;;;3.81;100.00;102984.84;5048008;28;20433;-77
2022/01/24 09:02:48;;;;;;;28.83;12.68;;;;;;;3.74;100.00;102976.31;5047554;28;20045;-77
2022/01/24 09:05:14;;;;;;;30.55;14.00;;;;;;;3.74;100.00;102975.47;5046354;28;20103;-76
2022/01/24 09:07:39;;;;;;;21.97;11.80;;;;;;;3.87;100.00;102981.97;5049663;28;20017;-77
2022/01/24 09:10:06;;;;;;;22.87;12.47;;;;;;;3.78;100.00;102962.06;5029127;28;20102;-77
2022/01/24 09:12:32;;;;;;;24.00;12.82;;;;;;;3.81;100.00;102967.22;5051027;28;20045;-76
2022/01/24 09:14:57;;;;;;;18.63;10.60;;;;;;;3.83;100.00;102961.00;5045977;28;20028;-76
2022/01/24 09:17:23;;;;;;;19.90;10.77;;;;;;;3.78;100.00;102946.22;5029873;28;20074;-79
2022/01/24 09:19:48;;;;;;;25.30;12.47;;;;;;;3.78;100.00;102956.78;5032344;28;20094;-78
2022/01/24 09:22:13;;;;;;;19.07;10.47;;;;;;;3.84;100.00;102960.09;5047741;28;20393;-78
2022/01/24 09:24:39;;;;;;;24.60;11.67;;;;;;;3.75;100.00;102956.91;5047691;28;20275;-79
2022/01/24 09:27:05;;;;;;;23.50;12.57;;;;;;;3.81;100.00;102961.91;5031325;28;20466;-78
2022/01/24 09:29:31;;;;;;;21.83;10.98;;;;;;;3.80;100.00;102970.78;5048736;28;20057;-78
2022/01/24 09:31:56;;;;;;;20.55;12.05;;;;;;;3.83;100.00;102974.22;5047988;28;20033;-79
2022/01/24 09:34:22;;;;;;;49.85;15.43;;;;;;;3.76;100.00;102969.19;5031865;28;20035;-78
2022/01/24 09:36:48;;;;;;;21.17;11.45;;;;;;;3.80;100.00;102969.94;5031487;28;20063;-77
2022/01/24 09:39:14;;;;;;;19.63;11.80;;;;;;;3.79;100.00;102968.19;5056327;28;20091;-78
2022/01/24 09:41:40;;;;;;;;;;;;;;;3.84;100.00;102965.38;5047788;28;20040;-79
2022/01/24 09:44:06;;;;;;;21.25;11.27;;;;;;;3.83;100.00;102961.88;5031902;28;19908;-77
2022/01/24 09:46:34;;;;;;;21.65;11.82;;;;;;;3.79;100.00;102963.78;5048518;28;20025;-80
2022/01/24 09:49:00;;;;;;;24.63;12.38;;;;;;;3.88;100.00;102956.38;5048561;28;20040;-81
2022/01/24 09:51:25;;;;;;;20.03;10.67;;;;;;;3.91;100.00;102969.47;5031399;28;20132;-81
2022/01/24 09:53:51;;;;;;;21.23;11.43;;;;;;;3.92;100.00;102953.56;5047445;28;20033;-80
2022/01/24 09:56:17;;;;;;;18.98;10.52;;;;;;;3.95;100.00;102952.56;5056477;28;20348;-78
2022/01/24 09:58:43;;;;;;;25.33;12.00;;;;;;;3.90;100.00;102941.34;5068148;28;20044;-76
2022/01/24 10:01:09;;;;;;;19.85;11.45;;;;;;;3.84;100.00;102934.53;5051517;28;20036;-80
2022/01/24 10:03:35;;;;;;;18.98;10.77;;;;;;;3.88;100.00;102935.25;5050879;28;20043;-78
2022/01/24 10:06:01;;;;;;;21.40;11.15;;;;;;;3.86;100.00;102929.16;5050904;28;20166;-80
2022/01/24 10:08:27;;;;;;;25.57;12.33;;;;;;;3.93;100.00;102935.91;5050944;28;20058;-78
2022/01/24 10:10:59;;;;;;;23.60;11.85;;;;;;;3.83;100.00;102921.38;5039641;28;20396;-76
2022/01/24 10:19:17;;;;;;;22.83;11.73;;;;;;;3.90;100.00;102912.25;5051380;28;20028;-79
2022/01/24 10:21:46;;;;;;;18.48;10.50;;;;;;;3.99;100.00;102927.72;5046665;28;20047;-78
2022/01/24 10:24:28;;;;;;;24.77;11.50;;;;;;;3.92;100.00;102911.25;5024073;28;20030;-81
2022/01/24 10:27:11;;;;;;;21.17;11.32;;;;;;;3.91;100.00;102906.03;5010417;28;20037;-80
2022/01/24 10:29:56;;;;;;;23.98;11.60;;;;;;;3.76;100.00;102889.06;5014344;28;20505;-78
2022/01/24 10:32:30;;;;;;;22.48;12.02;;;;;;;3.86;100.00;102900.09;5030422;28;20041;-79
2022/01/24 10:35:16;;;;;;;25.02;11.88;;;;;;;3.82;100.00;102899.38;5033069;28;20617;-81
2022/01/24 10:37:42;;;;;;;19.90;12.18;;;;;;;3.82;100.00;102909.97;5049768;28;20796;-81
2022/01/24 10:40:19;;;;;;;19.88;10.23;;;;;;;3.79;100.00;102895.09;5034465;28;20166;-79
2022/01/24 10:42:55;;;;;;;21.23;11.10;;;;;;;3.86;100.00;102895.66;5050105;28;20041;-82
2022/01/24 10:45:23;;;;;;;21.17;12.23;;;;;;;3.91;100.00;102890.19;5050449;28;20094;-80
2022/01/24 10:47:52;;;;;;;20.58;12.15;;;;;;;3.82;100.00;102886.19;5033826;28;20072;-81
2022/01/24 10:50:23;;;;;;;19.00;11.60;;;;;;;3.89;100.00;102892.91;5034553;28;20040;-78
2022/01/24 10:52:49;;;;;;;21.48;11.95;;;;;;;3.89;100.00;102874.41;5036101;28;20044;-81
2022/01/24 10:55:16;;;;;;;23.73;12.85;;;;;;;3.88;100.00;102882.41;5039589;28;20028;-81
2022/01/24 10:57:48;;;;;;;24.92;12.77;;;;;;;3.90;100.00;102888.47;5039639;28;20040;-81
2022/01/24 11:00:22;;;;;;;23.45;12.70;;;;;;;3.89;100.00;102884.13;5056416;28;20439;-81
2022/01/24 11:02:53;;;;;;;26.63;13.10;;;;;;;3.83;100.00;102882.59;5040259;28;20056;-77
2022/01/24 11:05:32;;;;;;;25.90;13.43;;;;;;;3.85;100.00;102887.81;5038608;28;20032;-80
2022/01/24 11:08:06;;;;;;;23.40;13.38;;;;;;;3.97;100.00;102888.13;5056249;28;20037;-79
2022/01/24 11:10:34;;;;;;;26.65;13.43;;;;;;;3.93;100.00;102875.13;5056075;28;20056;-81
2022/01/24 11:13:03;;;;;;;27.20;13.65;;;;;;;3.96;100.00;102872.38;5040120;28;20449;-82
2022/01/24 11:15:29;;;;;;;29.95;14.18;;;;;;;3.79;100.00;102868.69;5055694;28;20040;-81
2022/01/24 11:17:58;;;;;;;26.00;14.07;;;;;;;3.80;100.00;102869.53;5039820;28;20036;-79
2022/01/24 11:20:29;;;;;;;29.98;14.18;;;;;;;3.85;100.00;102869.31;5039062;28;20028;-80
2022/01/24 11:23:00;;;;;;;29.13;14.25;;;;;;;3.83;100.00;102864.09;5039691;28;20036;-81
2022/01/24 11:25:29;;;;;;;32.67;14.90;;;;;;;3.75;100.00;102864.44;5037397;28;20287;-80
2022/01/24 11:27:54;;;;;;;26.88;15.00;;;;;;;3.79;100.00;102862.50;5038651;28;20483;-78
2022/01/24 11:30:29;;;;;;;29.47;15.93;;;;;;;3.84;100.00;102864.94;5055994;28;20086;-80
2022/01/24 11:33:09;;;;;;;31.65;15.48;;;;;;;3.77;100.00;102859.09;5034716;28;20672;-79
2022/01/24 11:35:38;;;;;;;32.33;16.25;;;;;;;3.82;100.00;102862.41;5034714;28;20040;-78
2022/01/24 11:38:04;;;;;;;31.40;16.50;;;;;;;3.90;100.00;102876.13;5034916;28;20123;-80
2022/01/24 11:40:45;;;;;;;31.42;15.82;;;;;;;3.91;100.00;102871.69;5034675;28;20127;-80
2022/01/24 11:43:25;;;;;;;34.95;17.80;;;;;;;3.88;100.00;102850.69;5051224;28;20037;-78
2022/01/24 11:46:00;;;;;;;36.65;15.45;;;;;;;3.90;100.00;102854.13;5036619;28;20021;-79
2022/01/24 11:48:25;;;;;;;36.40;17.37;;;;;;;3.92;100.00;102842.56;5052475;28;20040;-80
2022/01/24 11:51:03;;;;;;;35.40;17.10;;;;;;;3.95;100.00;102838.91;5034833;28;20025;-81
2022/01/24 11:53:32;;;;;;;39.10;19.08;;;;;;;3.83;100.00;102832.38;5051122;28;20032;-79
2022/01/24 11:56:24;;;;;;;43.65;19.35;;;;;;;3.91;100.00;102835.56;5034186;28;20040;-78
2022/01/24 11:58:52;;;;;;;38.67;18.80;;;;;;;3.89;100.00;102823.34;5050718;28;20043;-80
2022/01/24 12:01:35;;;;;;;42.10;19.88;;;;;;;3.88;100.00;102814.53;5050331;28;20028;-81
2022/01/24 12:04:00;;;;;;;46.90;21.27;;;;;;;3.92;100.00;102817.91;5050637;28;20111;-81
2022/01/24 12:06:25;;;;;;;41.75;22.33;;;;;;;3.94;100.00;102818.72;5034450;28;20136;-79
2022/01/24 12:09:02;;;;;;;41.57;19.67;;;;;;;3.98;100.00;102815.88;5032837;28;20124;-80
2022/01/24 12:11:33;;;;;;;52.45;23.17;;;;;;;3.79;100.00;102799.09;5051315;28;20112;-77
2022/01/24 12:14:12;;;;;;;46.78;21.65;;;;;;;3.88;100.00;102821.63;5035297;28;20479;-80
2022/01/24 12:16:41;;;;;;;48.95;21.85;;;;;;;3.90;100.00;102822.41;5034269;28;20037;-77
2022/01/24 12:19:07;;;;;;;47.35;22.40;;;;;;;3.89;100.00;102810.13;5032879;28;20041;-80
2022/01/24 12:21:38;;;;;;;58.53;24.23;;;;;;;3.83;100.00;102802.47;5049324;28;20075;-79
2022/01/24 12:24:13;;;;;;;57.03;23.40;;;;;;;3.86;100.00;102805.81;5032455;28;20037;-78
2022/01/24 12:26:45;;;;;;;51.42;23.15;;;;;;;3.88;100.00;102806.59;5049563;28;20040;-79
2022/01/24 12:29:12;;;;;;;59.78;25.75;;;;;;;3.83;100.00;102803.31;5032851;28;20025;-81
2022/01/24 12:31:53;;;;;;;62.38;25.52;;;;;;;3.86;100.00;102795.25;5032330;28;20090;-79
2022/01/24 12:34:21;;;;;;;59.35;25.92;;;;;;;3.87;100.00;102793.50;5048756;28;20107;-79
2022/01/24 12:36:51;;;;;;;56.10;25.23;;;;;;;3.90;100.00;102795.97;5031648;28;20032;-80
2022/01/24 12:39:19;;;;;;;58.95;27.02;;;;;;;3.95;99.80;102786.06;5049036;28;20430;-78
2022/01/24 12:41:49;;;;;;;56.28;24.40;;;;;;;3.90;99.87;102785.41;5032145;28;20114;-78
2022/01/24 12:47:00;;;;;;;56.70;27.02;;;;;;;3.89;99.46;102778.41;5048575;28;20547;-80
2022/01/24 12:49:26;;;;;;;;;;;;;;;3.95;99.32;102783.41;5032681;28;20097;-80
2022/01/24 12:51:52;;;;;;;53.78;25.30;;;;;;;3.91;98.64;102769.50;5032009;28;19929;-80
2022/01/24 12:54:17;;;;;;;50.53;23.33;;;;;;;3.94;98.95;102782.56;5034034;28;20076;-78
2022/01/24 12:56:43;;;;;;;64.07;24.95;;;;;;;3.86;98.88;102773.25;5032947;28;20041;-78
2022/01/24 12:59:09;;;;;;;58.08;25.40;;;;;;;3.86;98.89;102766.19;5032359;28;20506;-80